Bingham, New Mexico
Current Conditions -  °F | °C
As of 10:55 PM on Friday 19 Dec 2014 (Local Time) from KSRR Reporting Station
Clear Clear  
Wind Chill: 26°   Ceiling: Unl
Heat Index: 32°   Visibility: 10mi
Dew Point: 10°   Wind: 6mph
Humidity: 41%   Direction: 270°W
Pressure: 30.17"   Gusts: NA
Location:  34.0228°N, 106.016°W
Report Text: KSRR 200555Z AUTO 27005KT 10SM CLR 00/M12 A3017 RMK AO2
Loading
Personal Weather Stations






























Interactive Weather Map New forecast layout! Learn more

10-Day Weather Forecast

Advertisements
Track Severe Weather on mobile